Time;durP1;ratioP1;P1;durP2;ratioP2;P2;SDS_P1;SDS_P2;PMS_P1;PMS_P2;Temp;Humidity;BMP_temperature;BMP_pressure;BME280_temperature;BME280_humidity;BME280_pressure;Samples;Min_cycle;Max_cycle;Signal;HPM_P1;HPM_P2
2023/09/30 04:31:30;;;;;;;0.10;0.10;;;14.10;80.20;;;;;;5373122;23;20103;-77
2023/09/30 04:33:57;;;;;;;0.00;0.00;;;14.00;80.30;;;;;;4888492;29;20059;-77
2023/09/30 04:36:23;;;;;;;0.10;0.10;;;14.10;80.20;;;;;;4893743;29;20061;-77
2023/09/30 04:38:49;;;;;;;0.13;0.10;;;14.00;80.20;;;;;;4878421;29;20535;-77
2023/09/30 04:41:15;;;;;;;0.00;0.00;;;14.00;80.40;;;;;;4892711;29;20045;-77
2023/09/30 04:43:43;;;;;;;0.10;0.10;;;13.90;80.60;;;;;;4899864;29;20588;-77
2023/09/30 04:46:09;;;;;;;0.03;0.03;;;13.90;80.80;;;;;;4899837;29;20032;-77
2023/09/30 04:48:35;;;;;;;0.10;0.10;;;14.00;81.00;;;;;;4896612;29;20032;-77
2023/09/30 04:51:04;;;;;;;0.10;0.10;;;14.00;80.90;;;;;;4883511;29;20124;-77
2023/09/30 04:53:30;;;;;;;0.10;0.10;;;14.00;81.10;;;;;;4899773;29;20120;-77
2023/09/30 04:55:56;;;;;;;0.10;0.10;;;14.10;81.20;;;;;;4890501;29;20061;-77
2023/09/30 04:58:23;;;;;;;0.10;0.10;;;14.20;81.00;;;;;;4884455;29;20047;-77
2023/09/30 05:00:49;;;;;;;0.10;0.10;;;14.20;81.10;;;;;;4885241;29;20041;-77
2023/09/30 05:03:15;;;;;;;0.00;0.00;;;14.20;80.90;;;;;;4881145;29;20031;-77
2023/09/30 05:05:41;;;;;;;0.00;0.00;;;14.30;80.90;;;;;;4884069;29;20037;-77
2023/09/30 05:08:07;;;;;;;0.10;0.10;;;14.30;80.90;;;;;;4884504;29;20029;-77
2023/09/30 05:10:33;;;;;;;0.10;0.10;;;14.30;80.90;;;;;;4884635;29;20036;-77
2023/09/30 05:12:59;;;;;;;0.00;0.00;;;14.30;80.80;;;;;;4884667;29;20468;-77
2023/09/30 05:15:25;;;;;;;0.10;0.10;;;14.30;81.00;;;;;;4884598;29;20060;-77
2023/09/30 05:17:51;;;;;;;0.00;0.00;;;14.30;80.80;;;;;;4884120;29;20027;-77
2023/09/30 05:20:17;;;;;;;0.10;0.10;;;14.20;80.90;;;;;;4884670;29;20119;-77
2023/09/30 05:22:45;;;;;;;0.10;0.10;;;14.20;81.00;;;;;;4884315;29;20033;-77
2023/09/30 05:25:13;;;;;;;0.10;0.10;;;14.10;81.10;;;;;;4894158;29;20032;-77
2023/09/30 05:27:38;;;;;;;0.03;0.03;;;14.20;81.20;;;;;;4885429;29;20056;-77
2023/09/30 05:30:06;;;;;;;0.00;0.00;;;14.20;81.20;;;;;;4884191;29;20029;-77
2023/09/30 05:32:32;;;;;;;0.03;0.03;;;14.20;81.40;;;;;;4884342;29;20041;-77
2023/09/30 05:34:58;;;;;;;0.10;0.10;;;14.20;81.30;;;;;;4900610;29;20076;-77
2023/09/30 05:37:26;;;;;;;0.10;0.10;;;14.20;81.40;;;;;;4902699;29;20033;-77
2023/09/30 05:39:51;;;;;;;0.13;0.13;;;14.30;81.40;;;;;;4878126;29;20165;-77
2023/09/30 05:42:18;;;;;;;0.10;0.10;;;14.30;81.30;;;;;;4884226;29;20070;-77
2023/09/30 05:44:45;;;;;;;0.10;0.10;;;14.30;81.60;;;;;;4867160;29;20037;-77
2023/09/30 05:47:11;;;;;;;0.10;0.10;;;14.40;81.30;;;;;;4883986;29;20040;-77
2023/09/30 05:49:37;;;;;;;0.10;0.10;;;14.40;81.50;;;;;;4881203;29;20025;-77
2023/09/30 05:52:03;;;;;;;0.00;0.00;;;14.40;81.50;;;;;;4902668;29;20032;-74
2023/09/30 05:54:30;;;;;;;0.00;0.00;;;14.40;81.30;;;;;;4902116;29;20060;-74
2023/09/30 05:56:56;;;;;;;0.10;0.10;;;14.40;81.20;;;;;;4902291;29;20119;-75
2023/09/30 05:59:21;;;;;;;0.03;0.03;;;14.40;81.40;;;;;;4902298;29;20518;-75
2023/09/30 06:01:47;;;;;;;0.10;0.10;;;14.40;81.20;;;;;;4885084;29;20111;-75
2023/09/30 06:04:13;;;;;;;0.10;0.10;;;14.40;81.00;;;;;;4884734;29;20024;-75
2023/09/30 06:06:38;;;;;;;0.10;0.10;;;14.30;81.30;;;;;;4895664;29;20033;-74
2023/09/30 06:09:07;;;;;;;0.10;0.10;;;14.30;81.20;;;;;;4896707;29;20087;-72
2023/09/30 06:11:33;;;;;;;0.10;0.10;;;14.30;81.40;;;;;;4901751;29;20111;-74
2023/09/30 06:14:00;;;;;;;0.00;0.00;;;14.30;81.30;;;;;;4884120;29;20059;-73
2023/09/30 06:16:27;;;;;;;0.00;0.00;;;14.20;81.20;;;;;;4866494;29;20048;-74
2023/09/30 06:18:55;;;;;;;0.10;0.10;;;14.20;81.30;;;;;;4883379;29;20107;-73
2023/09/30 06:21:21;;;;;;;0.10;0.10;;;14.20;81.40;;;;;;4883016;29;20040;-73
2023/09/30 06:23:54;;;;;;;0.08;0.08;;;14.10;81.50;;;;;;4883109;29;20024;-74
2023/09/30 06:26:20;;;;;;;0.10;0.10;;;14.20;81.70;;;;;;4884984;29;20033;-74
2023/09/30 06:28:47;;;;;;;0.10;0.10;;;14.20;81.60;;;;;;4901664;29;20445;-73
2023/09/30 06:31:15;;;;;;;0.10;0.10;;;14.10;81.50;;;;;;4869336;29;20135;-74
2023/09/30 06:33:41;;;;;;;0.10;0.10;;;14.20;81.50;;;;;;4863066;29;20120;-74
2023/09/30 06:36:13;;;;;;;0.10;0.10;;;14.10;81.70;;;;;;4874702;29;20025;-73
2023/09/30 06:38:40;;;;;;;0.10;0.10;;;14.10;81.70;;;;;;4870119;29;20032;-74
2023/09/30 06:41:06;;;;;;;0.08;0.08;;;14.10;81.70;;;;;;4869529;29;20057;-74
2023/09/30 06:43:33;;;;;;;0.08;0.08;;;14.20;81.40;;;;;;4854903;29;20459;-75
2023/09/30 06:45:59;;;;;;;0.10;0.10;;;14.10;81.20;;;;;;4851945;29;20040;-76
2023/09/30 06:48:24;;;;;;;0.10;0.10;;;14.20;81.40;;;;;;4870561;29;20017;-75
2023/09/30 06:50:52;;;;;;;0.00;0.00;;;14.20;81.40;;;;;;4854184;29;20033;-74
2023/09/30 06:53:19;;;;;;;0.10;0.10;;;14.20;81.60;;;;;;4854960;29;20265;-76
2023/09/30 06:55:45;;;;;;;0.00;0.00;;;14.20;81.60;;;;;;4874268;29;20462;-75
2023/09/30 06:58:11;;;;;;;0.03;0.03;;;14.20;81.70;;;;;;4869043;29;20116;-75
2023/09/30 07:00:41;;;;;;;0.10;0.10;;;14.30;81.90;;;;;;4856006;29;20120;-75
2023/09/30 07:03:09;;;;;;;0.00;0.00;;;14.30;82.00;;;;;;4873820;29;20508;-75
2023/09/30 07:05:36;;;;;;;0.10;0.10;;;14.40;82.00;;;;;;4872926;29;20028;-75
2023/09/30 07:08:02;;;;;;;0.10;0.10;;;14.40;81.80;;;;;;4874607;29;20540;-75
2023/09/30 07:10:29;;;;;;;0.10;0.10;;;14.50;81.90;;;;;;4875987;29;20037;-75
2023/09/30 07:12:55;;;;;;;0.10;0.10;;;14.50;81.80;;;;;;4868050;29;20117;-76
2023/09/30 07:15:20;;;;;;;0.10;0.10;;;14.70;81.70;;;;;;4845797;29;20034;-75
2023/09/30 07:17:47;;;;;;;0.00;0.00;;;14.80;81.40;;;;;;4862497;29;20085;-75
2023/09/30 07:20:13;;;;;;;0.10;0.10;;;14.90;81.20;;;;;;4845566;29;20549;-74
2023/09/30 07:22:39;;;;;;;0.10;0.10;;;14.90;80.70;;;;;;4879086;29;20025;-74
2023/09/30 07:25:05;;;;;;;0.20;0.20;;;15.10;80.50;;;;;;4874478;29;20037;-74
2023/09/30 07:27:30;;;;;;;0.82;0.82;;;15.70;79.50;;;;;;4873734;29;20378;-74
2023/09/30 07:29:56;;;;;;;0.20;0.20;;;16.70;77.30;;;;;;4859463;29;20034;-75
2023/09/30 07:32:24;;;;;;;0.20;0.20;;;17.60;74.40;;;;;;4884319;29;20080;-75
2023/09/30 07:34:51;;;;;;;0.20;0.20;;;18.10;72.40;;;;;;4885244;29;20033;-75
2023/09/30 07:37:20;;;;;;;0.20;0.20;;;18.50;71.40;;;;;;4881706;29;20029;-75
2023/09/30 07:39:46;;;;;;;0.15;0.15;;;18.70;70.50;;;;;;4881577;29;20025;-75
2023/09/30 07:42:12;;;;;;;0.20;0.20;;;18.80;69.90;;;;;;4869258;29;20053;-75
2023/09/30 07:44:38;;;;;;;0.10;0.10;;;18.40;70.10;;;;;;4892427;29;20093;-74
2023/09/30 07:47:06;;;;;;;0.00;0.00;;;17.80;71.30;;;;;;4881881;29;20061;-75
2023/09/30 07:49:32;;;;;;;0.00;0.00;;;17.30;72.50;;;;;;4864500;29;20024;-74
2023/09/30 07:51:58;;;;;;;0.00;0.00;;;16.90;73.30;;;;;;4865618;29;20040;-74
2023/09/30 07:54:24;;;;;;;0.00;0.00;;;16.60;74.80;;;;;;4880759;29;20420;-75
2023/09/30 07:56:49;;;;;;;0.00;0.00;;;16.40;75.50;;;;;;4882689;29;20032;-74
2023/09/30 07:59:15;;;;;;;0.10;0.10;;;16.30;75.90;;;;;;4881668;29;20500;-74
2023/09/30 08:01:41;;;;;;;0.10;0.10;;;16.20;76.30;;;;;;4882528;29;20115;-79
2023/09/30 08:04:07;;;;;;;0.10;0.10;;;16.10;76.70;;;;;;4871544;29;20374;-81
2023/09/30 08:06:33;;;;;;;0.10;0.10;;;16.20;77.10;;;;;;4888693;29;20041;-80
2023/09/30 08:08:58;;;;;;;0.10;0.10;;;16.20;76.90;;;;;;4892347;29;20087;-77
2023/09/30 08:11:27;;;;;;;0.05;0.05;;;16.30;77.20;;;;;;4894313;29;20028;-79
2023/09/30 08:13:53;;;;;;;0.10;0.10;;;16.40;77.20;;;;;;4895154;29;20582;-75
2023/09/30 08:16:19;;;;;;;0.10;0.10;;;16.40;76.20;;;;;;4883466;29;20036;-75
2023/09/30 08:18:45;;;;;;;0.10;0.10;;;16.40;76.80;;;;;;4893199;29;20037;-75
2023/09/30 08:21:11;;;;;;;0.00;0.00;;;16.50;77.20;;;;;;4889290;29;20029;-75
2023/09/30 08:23:38;;;;;;;0.10;0.10;;;16.60;77.20;;;;;;4889858;29;20108;-74
2023/09/30 08:26:07;;;;;;;0.10;0.10;;;16.70;77.00;;;;;;4888706;29;20029;-76
2023/09/30 08:28:33;;;;;;;0.03;0.03;;;16.70;76.50;;;;;;4892338;29;20028;-75
2023/09/30 08:31:05;;;;;;;0.10;0.10;;;16.70;76.50;;;;;;4894115;29;20515;-74
2023/09/30 08:33:32;;;;;;;0.00;0.00;;;16.60;75.70;;;;;;4894821;29;20032;-75
2023/09/30 08:36:08;;;;;;;0.10;0.10;;;16.60;76.80;;;;;;4893145;29;20037;-74
2023/09/30 08:38:41;;;;;;;0.10;0.10;;;16.50;75.60;;;;;;4868344;29;20029;-74
2023/09/30 08:41:10;;;;;;;0.10;0.10;;;16.40;76.40;;;;;;4899319;29;20120;-75
2023/09/30 08:43:40;;;;;;;0.10;0.10;;;16.50;76.30;;;;;;4903721;29;20025;-74
2023/09/30 08:46:07;;;;;;;0.00;0.00;;;16.60;76.00;;;;;;4888228;29;20036;-75
2023/09/30 08:48:34;;;;;;;0.10;0.10;;;16.60;76.60;;;;;;4873692;29;20448;-76
2023/09/30 08:51:01;;;;;;;0.10;0.10;;;16.80;76.00;;;;;;4893342;29;20500;-76
2023/09/30 08:53:29;;;;;;;0.10;0.10;;;16.80;76.10;;;;;;4893843;29;20024;-75
2023/09/30 08:55:55;;;;;;;0.10;0.10;;;16.90;76.40;;;;;;4892745;29;20031;-77
2023/09/30 08:58:26;;;;;;;0.10;0.10;;;17.00;76.20;;;;;;4890901;29;20107;-75
2023/09/30 09:00:52;;;;;;;0.10;0.10;;;17.20;76.00;;;;;;4892174;29;20033;-75
2023/09/30 09:03:21;;;;;;;0.10;0.10;;;17.20;75.40;;;;;;4888251;29;20036;-75
2023/09/30 09:05:56;;;;;;;0.10;0.10;;;17.30;75.80;;;;;;4877444;29;20029;-76
2023/09/30 09:08:25;;;;;;;0.10;0.10;;;17.30;74.80;;;;;;4875859;29;20032;-76
2023/09/30 09:10:58;;;;;;;0.10;0.10;;;17.30;74.70;;;;;;4892769;29;20028;-75
2023/09/30 09:13:24;;;;;;;;;;;17.30;74.20;;;;;;4876050;29;20361;-75
2023/09/30 09:16:05;;;;;;;0.00;0.00;;;17.30;74.70;;;;;;4893889;29;19911;-74
2023/09/30 09:18:33;;;;;;;0.10;0.10;;;17.40;74.90;;;;;;4894536;29;20700;-75
2023/09/30 09:21:14;;;;;;;0.10;0.10;;;17.40;74.70;;;;;;4889883;29;20060;-75
2023/09/30 09:23:45;;;;;;;0.10;0.10;;;17.50;74.30;;;;;;4884109;29;20400;-76
2023/09/30 09:26:12;;;;;;;0.05;0.05;;;17.60;73.90;;;;;;4881316;29;20758;-78
2023/09/30 09:28:42;;;;;;;0.10;0.10;;;17.60;74.10;;;;;;4866376;29;20044;-79
2023/09/30 09:31:22;;;;;;;0.10;0.10;;;17.70;74.50;;;;;;4885878;29;20048;-77
2023/09/30 09:33:49;;;;;;;0.10;0.10;;;17.70;73.70;;;;;;4874695;29;20711;-74
2023/09/30 09:36:15;;;;;;;0.13;0.13;;;17.80;74.40;;;;;;4902046;29;20028;-77
2023/09/30 09:38:49;;;;;;;0.10;0.10;;;17.80;74.70;;;;;;4902242;29;20036;-76
2023/09/30 09:41:15;;;;;;;0.10;0.10;;;17.90;74.10;;;;;;4888123;29;20048;-74
2023/09/30 09:43:43;;;;;;;0.10;0.10;;;18.00;73.90;;;;;;4886010;29;20033;-76
2023/09/30 09:46:09;;;;;;;0.00;0.00;;;18.00;73.80;;;;;;4883998;29;20025;-75
2023/09/30 09:48:36;;;;;;;0.10;0.10;;;18.10;73.90;;;;;;4884099;29;20032;-76
2023/09/30 09:51:07;;;;;;;0.03;0.03;;;18.20;73.10;;;;;;4883718;29;20516;-76
2023/09/30 09:53:38;;;;;;;0.10;0.10;;;18.30;74.00;;;;;;4886263;29;20108;-76
2023/09/30 09:56:09;;;;;;;0.10;0.10;;;18.40;71.70;;;;;;4893459;29;20112;-76
2023/09/30 09:58:37;;;;;;;0.10;0.10;;;18.50;71.90;;;;;;4874954;29;20458;-76
2023/09/30 10:01:06;;;;;;;0.10;0.10;;;18.60;72.70;;;;;;4873727;29;20062;-76
2023/09/30 10:03:32;;;;;;;0.00;0.00;;;18.60;72.00;;;;;;4894161;29;20460;-76
2023/09/30 10:05:59;;;;;;;0.10;0.10;;;18.70;71.70;;;;;;4870575;29;20480;-76
2023/09/30 10:08:39;;;;;;;0.08;0.08;;;18.60;70.40;;;;;;4877508;29;20092;-78
2023/09/30 10:11:05;;;;;;;0.00;0.00;;;18.60;71.30;;;;;;4895182;29;20032;-77
2023/09/30 10:13:50;;;;;;;0.10;0.10;;;18.80;71.30;;;;;;4871629;29;20061;-77
2023/09/30 10:16:37;;;;;;;0.10;0.10;;;18.80;71.30;;;;;;4874597;29;20045;-77
2023/09/30 10:19:18;;;;;;;0.10;0.10;;;18.90;70.90;;;;;;4894236;29;20056;-76
2023/09/30 10:22:24;;;;;;;0.10;0.10;;;18.90;70.60;;;;;;4888887;29;20799;-76
2023/09/30 10:24:52;;;;;;;0.10;0.10;;;18.90;70.30;;;;;;4889835;29;20059;-75
2023/09/30 10:27:28;;;;;;;0.10;0.10;;;19.00;71.50;;;;;;4880752;29;20607;-75
2023/09/30 10:30:10;;;;;;;0.10;0.10;;;19.10;71.40;;;;;;4888618;29;20047;-76
2023/09/30 10:32:51;;;;;;;0.00;0.00;;;19.20;70.10;;;;;;4887743;29;20071;-76
2023/09/30 10:35:20;;;;;;;0.10;0.10;;;19.20;69.90;;;;;;4878552;29;20044;-74
2023/09/30 10:37:46;;;;;;;0.10;0.10;;;19.10;69.60;;;;;;4882208;29;20033;-75
2023/09/30 10:40:28;;;;;;;0.10;0.10;;;19.20;69.90;;;;;;4891781;29;20025;-77
2023/09/30 10:42:57;;;;;;;0.10;0.10;;;19.30;70.70;;;;;;4884316;29;20420;-74
2023/09/30 10:45:46;;;;;;;0.00;0.00;;;19.30;70.00;;;;;;4883688;29;20593;-74
2023/09/30 10:48:24;;;;;;;0.10;0.10;;;19.40;70.10;;;;;;4884550;29;20468;-75
2023/09/30 10:50:55;;;;;;;0.10;0.10;;;19.60;70.00;;;;;;4897554;29;20081;-75
2023/09/30 10:53:21;;;;;;;0.10;0.10;;;19.60;71.30;;;;;;4881707;29;20381;-74
2023/09/30 10:55:55;;;;;;;0.10;0.10;;;19.70;70.00;;;;;;4882660;29;20040;-76
2023/09/30 10:58:20;;;;;;;0.00;0.00;;;19.70;71.00;;;;;;4890808;29;20056;-75
2023/09/30 11:00:55;;;;;;;0.10;0.10;;;19.80;70.10;;;;;;4892436;29;20036;-75
2023/09/30 11:03:22;;;;;;;0.00;0.00;;;19.80;71.20;;;;;;4899929;29;20067;-76
2023/09/30 11:05:48;;;;;;;0.00;0.00;;;19.90;68.90;;;;;;4865494;29;20084;-77
2023/09/30 11:08:17;;;;;;;0.10;0.10;;;19.90;69.70;;;;;;4882161;29;20029;-80
2023/09/30 11:10:52;;;;;;;0.10;0.10;;;20.00;68.60;;;;;;4883854;29;20036;-77
2023/09/30 11:13:18;;;;;;;0.10;0.10;;;20.00;68.80;;;;;;4889530;29;20041;-80
2023/09/30 11:15:45;;;;;;;0.00;0.00;;;20.10;67.90;;;;;;4882121;29;20089;-77
2023/09/30 11:18:18;;;;;;;0.10;0.10;;;20.00;68.20;;;;;;4882779;29;20036;-77
2023/09/30 11:20:44;;;;;;;;;;;20.10;69.60;;;;;;4895623;29;20042;-80
2023/09/30 11:23:14;;;;;;;0.00;0.00;;;20.30;68.90;;;;;;4869999;29;19908;-78
2023/09/30 11:25:41;;;;;;;0.10;0.10;;;20.30;67.50;;;;;;4877614;29;20025;-76
2023/09/30 11:28:17;;;;;;;0.00;0.00;;;20.30;67.60;;;;;;4888781;29;20025;-76
2023/09/30 11:31:01;;;;;;;0.03;0.03;;;20.30;68.30;;;;;;4890524;29;20049;-76
2023/09/30 11:33:28;;;;;;;0.00;0.00;;;20.40;68.90;;;;;;4873510;29;20028;-78
2023/09/30 11:36:24;;;;;;;0.00;0.00;;;20.50;68.70;;;;;;4891612;29;20033;-77
2023/09/30 11:38:52;;;;;;;0.05;0.05;;;20.60;67.10;;;;;;4867750;29;20805;-78
2023/09/30 11:41:18;;;;;;;0.00;0.00;;;20.60;68.00;;;;;;4876366;29;20055;-78
2023/09/30 11:44:14;;;;;;;0.00;0.00;;;20.70;67.30;;;;;;4889564;29;20039;-78
2023/09/30 11:46:54;;;;;;;0.00;0.00;;;20.60;67.60;;;;;;4886116;29;20116;-77
2023/09/30 11:49:32;;;;;;;0.10;0.10;;;20.60;67.50;;;;;;4866198;29;20033;-77
2023/09/30 11:52:00;;;;;;;0.00;0.00;;;20.70;67.40;;;;;;4883980;29;20157;-77
2023/09/30 11:54:37;;;;;;;0.00;0.00;;;20.80;68.00;;;;;;4894472;29;20044;-78
2023/09/30 11:57:03;;;;;;;0.00;0.00;;;20.80;67.90;;;;;;4890424;29;20040;-77
2023/09/30 11:59:29;;;;;;;0.00;0.00;;;20.90;67.70;;;;;;4890224;29;20025;-78
2023/09/30 12:01:56;;;;;;;0.10;0.10;;;20.90;67.00;;;;;;4890204;29;20756;-77
2023/09/30 12:04:21;;;;;;;0.00;0.00;;;20.90;66.10;;;;;;4878880;29;20062;-78
2023/09/30 12:06:48;;;;;;;0.00;0.00;;;21.00;68.20;;;;;;4871401;29;20033;-78
2023/09/30 12:09:22;;;;;;;0.00;0.00;;;21.10;66.70;;;;;;4887950;29;20032;-78
2023/09/30 12:11:49;;;;;;;0.08;0.08;;;21.10;66.40;;;;;;4884149;29;20500;-78
2023/09/30 12:14:15;;;;;;;0.10;0.10;;;21.10;66.30;;;;;;4888894;29;20143;-78
2023/09/30 12:16:41;;;;;;;0.05;0.05;;;21.20;66.50;;;;;;4904298;29;20040;-78
2023/09/30 12:19:10;;;;;;;0.10;0.10;;;21.20;66.40;;;;;;4891241;29;20040;-85
2023/09/30 12:21:43;;;;;;;0.05;0.05;;;21.30;64.60;;;;;;4884219;29;20079;-82
2023/09/30 12:24:09;;;;;;;0.00;0.00;;;21.20;64.70;;;;;;4858705;29;20037;-84
2023/09/30 12:26:40;;;;;;;0.00;0.00;;;21.30;64.70;;;;;;4858343;29;20065;-83
2023/09/30 12:29:06;;;;;;;0.10;0.10;;;21.20;64.20;;;;;;4851059;29;20033;-82
2023/09/30 12:31:33;;;;;;;0.00;0.00;;;21.30;64.50;;;;;;4877449;29;20064;-84
2023/09/30 12:33:59;;;;;;;0.10;0.10;;;21.30;65.50;;;;;;4868826;29;20082;-84
2023/09/30 12:36:25;;;;;;;0.05;0.05;;;21.40;66.30;;;;;;4893310;29;20339;-82
2023/09/30 12:38:51;;;;;;;0.00;0.00;;;21.50;65.90;;;;;;4903829;29;20051;-83
2023/09/30 12:41:19;;;;;;;0.10;0.10;;;21.50;66.00;;;;;;4874319;29;20037;-82
2023/09/30 12:43:45;;;;;;;0.00;0.00;;;21.50;65.00;;;;;;4885027;29;20492;-83
2023/09/30 12:46:13;;;;;;;0.05;0.05;;;21.50;65.10;;;;;;4869569;29;20037;-80
2023/09/30 12:48:39;;;;;;;0.10;0.10;;;21.60;64.50;;;;;;4869330;29;20563;-79
2023/09/30 12:51:06;;;;;;;0.00;0.00;;;21.60;63.70;;;;;;4885163;29;20125;-80
2023/09/30 12:53:33;;;;;;;0.00;0.00;;;21.60;62.40;;;;;;4883798;29;20029;-78
2023/09/30 12:55:59;;;;;;;0.00;0.00;;;21.60;63.30;;;;;;4888979;29;20052;-81
2023/09/30 12:58:27;;;;;;;0.10;0.10;;;21.60;62.10;;;;;;4902473;29;20036;-82
2023/09/30 13:00:54;;;;;;;0.08;0.08;;;21.60;63.50;;;;;;4906125;29;20033;-84
2023/09/30 13:03:20;;;;;;;0.10;0.10;;;21.70;64.60;;;;;;4892010;29;20084;-81
2023/09/30 13:05:46;;;;;;;0.00;0.00;;;21.70;62.50;;;;;;4905079;29;20033;-79
2023/09/30 13:08:11;;;;;;;0.10;0.10;;;21.70;62.70;;;;;;4900919;29;20075;-84
2023/09/30 13:10:38;;;;;;;0.00;0.00;;;21.80;63.90;;;;;;4886932;29;20048;-82
2023/09/30 13:13:05;;;;;;;0.00;0.00;;;21.80;62.80;;;;;;4889134;29;20377;-82
2023/09/30 13:15:30;;;;;;;0.10;0.10;;;21.80;62.00;;;;;;4883469;29;20120;-80
2023/09/30 13:17:56;;;;;;;0.03;0.03;;;21.90;63.60;;;;;;4884687;29;20068;-83
2023/09/30 13:20:22;;;;;;;0.00;0.00;;;22.00;63.00;;;;;;4884097;29;20032;-84
2023/09/30 13:22:47;;;;;;;0.00;0.00;;;22.00;62.10;;;;;;4884260;29;20029;-82
2023/09/30 13:25:13;;;;;;;0.00;0.00;;;22.00;61.30;;;;;;4892328;29;20092;-81
2023/09/30 13:27:40;;;;;;;0.00;0.00;;;22.00;62.00;;;;;;4901604;29;20057;-83
2023/09/30 13:30:07;;;;;;;0.00;0.00;;;22.00;60.10;;;;;;4900873;29;20040;-84
2023/09/30 13:32:35;;;;;;;0.00;0.00;;;22.00;61.40;;;;;;4900294;29;20052;-81
2023/09/30 13:35:05;;;;;;;0.00;0.00;;;22.10;62.10;;;;;;4900664;29;20039;-78
2023/09/30 13:37:33;;;;;;;0.00;0.00;;;22.10;61.10;;;;;;4895869;29;20062;-86
2023/09/30 13:40:04;;;;;;;0.00;0.00;;;22.10;61.60;;;;;;4885774;29;20027;-80
2023/09/30 13:42:30;;;;;;;0.08;0.08;;;22.10;61.80;;;;;;4902147;29;20092;-81
2023/09/30 13:44:57;;;;;;;0.00;0.00;;;22.20;61.80;;;;;;4892232;29;20110;-79
2023/09/30 13:47:25;;;;;;;0.05;0.05;;;22.30;62.00;;;;;;4882654;29;20025;-80
2023/09/30 13:49:50;;;;;;;0.00;0.00;;;22.30;61.00;;;;;;4883137;29;20226;-83
2023/09/30 13:52:17;;;;;;;0.03;0.03;;;22.30;61.00;;;;;;4900314;29;20067;-82
2023/09/30 13:54:43;;;;;;;0.00;0.00;;;22.30;61.50;;;;;;4901069;29;20061;-78
2023/09/30 13:57:08;;;;;;;0.00;0.00;;;22.30;62.60;;;;;;4888848;29;20417;-78
2023/09/30 13:59:35;;;;;;;0.10;0.10;;;22.40;62.10;;;;;;4882543;29;20033;-77
2023/09/30 14:02:02;;;;;;;0.00;0.00;;;22.50;62.00;;;;;;4883477;29;20101;-77
2023/09/30 14:04:31;;;;;;;0.00;0.00;;;22.40;61.20;;;;;;4896245;29;20563;-78
2023/09/30 14:07:00;;;;;;;0.00;0.00;;;22.40;61.80;;;;;;4891592;29;20491;-78
2023/09/30 14:09:27;;;;;;;0.08;0.08;;;22.50;61.20;;;;;;4883067;29;20036;-77
2023/09/30 14:11:53;;;;;;;0.00;0.00;;;22.50;61.10;;;;;;4883546;29;20178;-77
2023/09/30 14:14:19;;;;;;;0.00;0.00;;;22.50;61.00;;;;;;4883823;29;20079;-77
2023/09/30 14:16:44;;;;;;;0.00;0.00;;;22.50;61.70;;;;;;4882456;29;20029;-78
2023/09/30 14:19:10;;;;;;;0.00;0.00;;;22.60;61.70;;;;;;4882062;29;20037;-76
2023/09/30 14:21:36;;;;;;;0.00;0.00;;;22.60;61.50;;;;;;4882641;29;20040;-76
2023/09/30 14:24:04;;;;;;;0.10;0.10;;;22.60;61.70;;;;;;4882187;29;20511;-82
2023/09/30 14:26:30;;;;;;;0.00;0.00;;;22.50;59.90;;;;;;4895001;29;20480;-82
2023/09/30 14:28:55;;;;;;;0.00;0.00;;;22.60;60.30;;;;;;4896803;29;20085;-82
2023/09/30 14:31:21;;;;;;;0.00;0.00;;;22.60;61.30;;;;;;4887500;29;20084;-83
2023/09/30 14:33:47;;;;;;;0.00;0.00;;;22.60;60.80;;;;;;4884787;29;20037;-82
2023/09/30 14:36:12;;;;;;;0.00;0.00;;;22.50;60.60;;;;;;4884704;29;20033;-83
2023/09/30 14:38:38;;;;;;;0.00;0.00;;;22.50;60.80;;;;;;4885014;29;20032;-83
2023/09/30 14:41:08;;;;;;;0.10;0.10;;;22.60;60.80;;;;;;4883579;29;20040;-83
2023/09/30 14:43:34;;;;;;;0.00;0.00;;;22.60;60.60;;;;;;4885151;29;20059;-83
2023/09/30 14:46:03;;;;;;;0.00;0.00;;;22.60;60.90;;;;;;4884536;29;20111;-83
2023/09/30 14:48:30;;;;;;;0.00;0.00;;;22.70;60.90;;;;;;4895290;29;20032;-83
2023/09/30 14:50:56;;;;;;;0.00;0.00;;;22.70;61.50;;;;;;4867815;29;20048;-84
2023/09/30 14:53:22;;;;;;;0.00;0.00;;;22.70;61.60;;;;;;4865934;29;20077;-84
2023/09/30 14:55:48;;;;;;;0.00;0.00;;;22.70;61.70;;;;;;4888405;29;20044;-85
2023/09/30 14:58:14;;;;;;;0.00;0.00;;;22.70;61.70;;;;;;4896428;29;20039;-77
2023/09/30 15:00:40;;;;;;;0.00;0.00;;;22.70;61.40;;;;;;4882262;29;20123;-83
2023/09/30 15:03:06;;;;;;;0.00;0.00;;;22.70;61.40;;;;;;4875373;29;20037;-84
2023/09/30 15:05:38;;;;;;;0.00;0.00;;;22.70;61.30;;;;;;4884284;29;20502;-83
2023/09/30 15:08:03;;;;;;;0.00;0.00;;;22.60;61.60;;;;;;4865714;29;20044;-88
2023/09/30 15:10:29;;;;;;;0.10;0.10;;;22.60;60.80;;;;;;4887633;29;20033;-79
2023/09/30 15:12:57;;;;;;;0.00;0.00;;;22.60;61.70;;;;;;4874672;29;20508;-74
2023/09/30 15:15:23;;;;;;;0.05;0.05;;;22.50;61.90;;;;;;4886540;29;20021;-75
2023/09/30 15:17:48;;;;;;;0.00;0.00;;;22.60;62.50;;;;;;4891387;29;20036;-75
2023/09/30 15:20:14;;;;;;;0.10;0.10;;;22.60;62.20;;;;;;4891207;29;20036;-75
2023/09/30 15:22:40;;;;;;;0.00;0.00;;;22.60;61.60;;;;;;4887610;29;20055;-75
2023/09/30 15:25:06;;;;;;;0.03;0.03;;;22.60;62.20;;;;;;4888199;29;20052;-76
2023/09/30 15:27:32;;;;;;;0.10;0.10;;;22.60;61.80;;;;;;4897141;29;20032;-75
2023/09/30 15:30:03;;;;;;;0.00;0.00;;;22.50;61.60;;;;;;4894606;29;20020;-78
2023/09/30 15:32:29;;;;;;;0.00;0.00;;;22.60;61.30;;;;;;4890775;29;20057;-75
2023/09/30 15:34:55;;;;;;;0.00;0.00;;;22.50;61.10;;;;;;4890886;29;20698;-75
2023/09/30 15:37:21;;;;;;;0.00;0.00;;;22.50;62.00;;;;;;4897293;29;20087;-75
2023/09/30 15:39:46;;;;;;;0.00;0.00;;;22.50;60.90;;;;;;4895209;29;20119;-75
2023/09/30 15:42:13;;;;;;;0.00;0.00;;;22.50;61.30;;;;;;4898364;29;20133;-75
2023/09/30 15:44:38;;;;;;;0.00;0.00;;;22.50;61.90;;;;;;4892406;29;20028;-75
2023/09/30 15:47:08;;;;;;;0.00;0.00;;;22.50;61.60;;;;;;4897524;29;20036;-75
2023/09/30 15:49:34;;;;;;;0.00;0.00;;;22.50;61.10;;;;;;4884996;29;20025;-76
2023/09/30 15:52:01;;;;;;;0.00;0.00;;;22.40;61.50;;;;;;4895510;29;20037;-74
2023/09/30 15:54:26;;;;;;;0.00;0.00;;;22.40;61.90;;;;;;4896509;29;20066;-76
2023/09/30 15:56:52;;;;;;;0.00;0.00;;;22.40;62.40;;;;;;4896808;29;20103;-75
2023/09/30 15:59:18;;;;;;;0.00;0.00;;;22.30;62.20;;;;;;4899460;29;20037;-75
2023/09/30 16:01:44;;;;;;;0.00;0.00;;;22.30;62.20;;;;;;4896365;29;20029;-76
2023/09/30 16:04:10;;;;;;;0.00;0.00;;;22.30;62.00;;;;;;4899249;29;20392;-74
2023/09/30 16:06:35;;;;;;;0.00;0.00;;;22.30;62.10;;;;;;4899043;29;20021;-75
2023/09/30 16:09:01;;;;;;;0.00;0.00;;;22.30;62.70;;;;;;4897143;29;20032;-74
2023/09/30 16:11:27;;;;;;;0.10;0.10;;;22.30;62.60;;;;;;4897163;29;20028;-76
2023/09/30 16:13:54;;;;;;;0.00;0.00;;;22.30;63.00;;;;;;4898861;29;20032;-75
2023/09/30 16:16:20;;;;;;;0.00;0.00;;;22.30;63.30;;;;;;4898040;29;20111;-76
2023/09/30 16:18:46;;;;;;;0.00;0.00;;;22.20;63.50;;;;;;4895567;29;20076;-75
2023/09/30 16:21:12;;;;;;;0.00;0.00;;;22.10;63.80;;;;;;4896206;29;20030;-73
2023/09/30 16:23:38;;;;;;;0.00;0.00;;;22.10;64.10;;;;;;4898512;29;20040;-74
2023/09/30 16:26:06;;;;;;;0.00;0.00;;;22.10;63.50;;;;;;4889234;29;20496;-75
2023/09/30 16:28:32;;;;;;;0.00;0.00;;;22.00;63.90;;;;;;4897409;29;20131;-76
2023/09/30 16:31:01;;;;;;;0.00;0.00;;;22.00;64.20;;;;;;4895189;29;20073;-75
2023/09/30 16:33:26;;;;;;;0.00;0.00;;;21.90;64.40;;;;;;4893221;29;20049;-76
2023/09/30 16:35:53;;;;;;;0.00;0.00;;;21.90;64.20;;;;;;4898980;29;20131;-77
2023/09/30 16:38:24;;;;;;;0.00;0.00;;;21.80;64.70;;;;;;4897610;29;20971;-76
2023/09/30 16:40:51;;;;;;;0.00;0.00;;;21.80;64.30;;;;;;4887740;29;20037;-76
2023/09/30 16:43:17;;;;;;;0.00;0.00;;;21.80;64.80;;;;;;4881942;29;20033;-73
2023/09/30 16:45:43;;;;;;;0.00;0.00;;;21.80;64.50;;;;;;4887802;29;20100;-74
2023/09/30 16:48:10;;;;;;;0.00;0.00;;;21.80;64.80;;;;;;4886363;29;20021;-73
2023/09/30 16:50:36;;;;;;;0.00;0.00;;;21.80;64.90;;;;;;4891656;29;20041;-74
2023/09/30 16:53:02;;;;;;;0.00;0.00;;;21.80;65.10;;;;;;4884860;29;20037;-75
2023/09/30 16:55:29;;;;;;;0.00;0.00;;;21.70;64.90;;;;;;4891440;29;20115;-75
2023/09/30 16:57:54;;;;;;;0.00;0.00;;;21.70;64.80;;;;;;4897917;29;20866;-76
2023/09/30 17:00:21;;;;;;;0.00;0.00;;;21.60;65.10;;;;;;4883431;29;20064;-77
2023/09/30 17:02:47;;;;;;;0.00;0.00;;;21.60;65.40;;;;;;4888027;29;20475;-78
2023/09/30 17:05:14;;;;;;;0.00;0.00;;;21.50;65.50;;;;;;4900834;29;20123;-77
2023/09/30 17:07:40;;;;;;;0.00;0.00;;;21.50;65.40;;;;;;4898337;29;20040;-75
2023/09/30 17:10:08;;;;;;;0.00;0.00;;;21.40;65.80;;;;;;4888529;29;20033;-74
2023/09/30 17:12:34;;;;;;;0.00;0.00;;;21.30;65.70;;;;;;4900420;29;20084;-75
2023/09/30 17:14:59;;;;;;;0.00;0.00;;;21.30;66.00;;;;;;4895829;29;20033;-75
2023/09/30 17:17:27;;;;;;;0.00;0.00;;;21.20;66.60;;;;;;4882944;29;20048;-76
2023/09/30 17:19:53;;;;;;;0.00;0.00;;;21.20;67.60;;;;;;4896610;29;20101;-75
2023/09/30 17:22:19;;;;;;;0.00;0.00;;;21.10;67.80;;;;;;4891714;29;20032;-78